Time;durP1;ratioP1;P1;durP2;ratioP2;P2;SDS_P1;SDS_P2;PMS_P1;PMS_P2;Temp;Humidity;BMP_temperature;BMP_pressure;BME280_temperature;BME280_humidity;BME280_pressure;Samples;Min_cycle;Max_cycle;Signal;HPM_P1;HPM_P2
2023/12/09 00:00:34;;;;;;;26.17;12.77;;;1.70;99.90;;;-0.41;100.00;100541.75;10457720;27;98277;-87
2023/12/09 00:05:38;;;;;;;23.37;11.63;;;1.70;99.90;;;-0.46;100.00;100536.78;10452843;27;96529;-87
2023/12/09 00:10:41;;;;;;;30.30;13.03;;;1.70;99.90;;;-0.45;100.00;100533.25;10514690;27;96540;-88
2023/12/09 00:15:45;;;;;;;31.93;14.97;;;1.70;99.90;;;-0.49;100.00;100533.50;10461408;27;96605;-88
2023/12/09 00:20:49;;;;;;;38.73;13.63;;;1.70;99.90;;;-0.46;100.00;100536.78;10483725;27;96492;-87
2023/12/09 00:25:53;;;;;;;29.37;11.93;;;1.70;99.90;;;-0.51;100.00;100536.22;10484983;27;96525;-88
2023/12/09 00:30:56;;;;;;;30.67;13.80;;;1.70;99.90;;;-0.50;100.00;100526.63;10464662;27;96524;-87
2023/12/09 00:36:00;;;;;;;28.00;10.40;;;1.70;99.90;;;-0.45;100.00;100541.09;10444874;27;96539;-87
2023/12/09 00:41:04;;;;;;;24.73;12.50;;;1.70;99.90;;;-0.46;100.00;100542.03;10473675;27;96771;-87
2023/12/09 00:46:08;;;;;;;32.23;12.97;;;1.70;99.90;;;-0.48;100.00;100538.66;10469502;27;97690;-88
2023/12/09 00:51:12;;;;;;;25.00;11.07;;;1.70;99.90;;;-0.50;100.00;100539.66;10458296;27;96791;-88
2023/12/09 00:56:16;;;;;;;30.77;13.57;;;1.70;99.90;;;-0.46;100.00;100544.63;10481879;27;96596;-88
2023/12/09 01:01:37;;;;;;;23.27;10.70;;;1.70;99.90;;;-0.45;100.00;100542.84;10471793;27;97849;-87
2023/12/09 01:06:41;;;;;;;34.23;13.73;;;1.70;99.90;;;-0.42;100.00;100548.75;10481186;27;96603;-87
2023/12/09 01:11:45;;;;;;;33.00;15.00;;;1.80;99.90;;;-0.44;100.00;100547.16;10458276;27;96588;-88
2023/12/09 01:16:49;;;;;;;27.97;12.23;;;1.70;99.90;;;-0.43;100.00;100549.66;10478423;27;96705;-87
2023/12/09 01:21:52;;;;;;;27.00;11.57;;;1.80;99.90;;;-0.43;100.00;100544.44;10440993;27;96613;-88
2023/12/09 01:26:56;;;;;;;27.67;12.10;;;1.70;99.90;;;-0.45;100.00;100533.25;10455368;27;96616;-88
2023/12/09 01:31:59;;;;;;;26.23;10.93;;;1.70;99.90;;;-0.52;100.00;100526.72;10469706;27;96549;-88
2023/12/09 01:37:04;;;;;;;19.97;10.90;;;1.70;99.90;;;-0.45;100.00;100535.03;10453905;27;96540;-87
2023/12/09 01:42:09;;;;;;;27.73;12.17;;;1.70;99.90;;;-0.44;100.00;100534.09;10446061;27;97252;-87
2023/12/09 01:47:13;;;;;;;22.90;11.00;;;1.70;99.90;;;-0.47;100.00;100516.84;10487176;27;96707;-88
2023/12/09 01:52:18;;;;;;;25.83;11.03;;;1.70;99.90;;;-0.47;100.00;100524.69;10489813;27;96517;-88
2023/12/09 01:57:21;;;;;;;26.00;10.20;;;1.70;99.90;;;-0.44;100.00;100539.31;10442064;27;96504;-88
2023/12/09 02:02:25;;;;;;;27.97;10.73;;;1.70;99.90;;;-0.45;100.00;100543.69;10469733;27;97512;-87
2023/12/09 02:07:29;;;;;;;24.03;10.63;;;1.70;99.90;;;-0.48;100.00;100535.19;10445134;27;96598;-87
2023/12/09 02:12:45;;;;;;;23.73;10.37;;;1.70;99.90;;;-0.43;100.00;100539.22;10441193;27;96813;-88
2023/12/09 02:18:05;;;;;;;25.80;10.53;;;1.70;99.90;;;-0.43;100.00;100538.38;10455350;27;96477;-88
2023/12/09 02:23:26;;;;;;;21.93;9.50;;;1.70;99.90;;;-0.45;100.00;100535.84;10466410;27;96789;-88
2023/12/09 02:28:31;;;;;;;23.80;10.13;;;1.70;99.90;;;-0.45;100.00;100535.84;10427597;27;96634;-88
2023/12/09 02:33:36;;;;;;;25.53;10.97;;;1.70;99.90;;;-0.51;100.00;100519.72;10453172;27;96622;-87
2023/12/09 02:38:41;;;;;;;25.67;11.23;;;1.70;99.90;;;-0.45;100.00;100529.81;10457031;27;96892;-88
2023/12/09 02:43:46;;;;;;;26.03;11.63;;;1.70;99.90;;;-0.45;100.00;100533.25;10454015;27;96590;-88
2023/12/09 02:48:50;;;;;;;26.50;11.73;;;1.70;99.90;;;-0.42;100.00;100530.47;10485551;27;96475;-88
2023/12/09 02:53:54;;;;;;;17.90;8.20;;;1.70;99.90;;;-0.45;100.00;100522.81;10462744;27;96696;-88
2023/12/09 02:58:58;;;;;;;22.67;9.90;;;1.70;99.90;;;-0.42;100.00;100535.69;10428206;27;97941;-88
2023/12/09 03:04:01;;;;;;;25.50;10.87;;;1.70;99.90;;;-0.43;100.00;100543.59;10479566;27;96690;-88
2023/12/09 03:09:05;;;;;;;21.40;9.33;;;1.70;99.90;;;-0.42;100.00;100534.81;10476921;27;96635;-88
2023/12/09 03:14:08;;;;;;;21.73;9.53;;;1.70;99.90;;;-0.41;100.00;100539.97;10502882;27;96496;-88
2023/12/09 03:19:12;;;;;;;20.90;8.67;;;1.70;99.90;;;-0.45;100.00;100535.84;10486578;27;97384;-88
2023/12/09 03:24:16;;;;;;;26.10;10.63;;;1.70;99.90;;;-0.46;100.00;100539.41;10416692;27;96682;-88
2023/12/09 03:29:20;;;;;;;17.97;9.10;;;1.70;99.90;;;-0.44;100.00;100547.16;10456227;27;96724;-88
2023/12/09 03:34:24;;;;;;;26.47;10.67;;;1.70;99.90;;;-0.42;100.00;100546.13;10460939;27;96599;-88
2023/12/09 03:39:27;;;;;;;25.40;10.37;;;1.80;99.90;;;-0.46;100.00;100542.03;10451493;27;96480;-88
2023/12/09 03:44:31;;;;;;;25.30;10.57;;;1.80;99.90;;;-0.44;100.00;100547.97;10482818;27;96810;-88
2023/12/09 03:49:34;;;;;;;19.67;9.67;;;1.80;99.90;;;-0.45;100.00;100551.53;10440207;27;96749;-87
2023/12/09 03:54:39;;;;;;;25.77;11.37;;;1.80;99.90;;;-0.42;100.00;100553.97;10466234;27;96632;-88
2023/12/09 03:59:42;;;;;;;26.47;11.20;;;1.70;99.90;;;-0.43;100.00;100551.44;10484076;27;96563;-88
2023/12/09 04:04:45;;;;;;;26.67;10.00;;;1.80;99.90;;;-0.42;100.00;100556.59;10472315;27;97202;-88
2023/12/09 04:09:50;;;;;;;20.03;8.30;;;1.80;99.90;;;-0.40;100.00;100561.72;10474079;27;96581;-88
2023/12/09 04:14:54;;;;;;;25.47;10.97;;;1.70;99.90;;;-0.42;100.00;100559.19;10433575;27;96571;-88
2023/12/09 04:19:58;;;;;;;24.70;10.50;;;1.70;99.90;;;-0.50;100.00;100548.34;10475076;27;96627;-88
2023/12/09 04:25:04;;;;;;;20.40;8.93;;;1.70;99.90;;;-0.45;100.00;100559.34;10435516;27;97755;-89
2023/12/09 04:30:09;;;;;;;24.60;11.50;;;1.70;99.90;;;-0.44;100.00;100558.44;10453929;27;96591;-88
2023/12/09 04:35:13;;;;;;;27.00;11.50;;;1.70;99.90;;;-0.43;100.00;100557.50;10433583;27;96670;-88
2023/12/09 04:40:17;;;;;;;30.53;11.13;;;1.70;99.90;;;-0.45;100.00;100558.53;10439454;27;97488;-88
2023/12/09 04:45:22;;;;;;;22.60;8.83;;;1.70;99.90;;;-0.42;100.00;100560.94;10461802;27;96951;-88
2023/12/09 04:50:26;;;;;;;25.70;10.97;;;1.70;99.90;;;-0.42;100.00;100561.81;10430237;27;96842;-87
2023/12/09 04:55:29;;;;;;;30.17;11.70;;;1.70;99.90;;;-0.44;100.00;100558.44;10482926;27;96548;-88
2023/12/09 05:00:33;;;;;;;31.13;11.67;;;1.70;99.90;;;-0.42;100.00;100577.47;10480943;27;96438;-88
2023/12/09 05:05:36;;;;;;;32.40;13.20;;;1.70;99.90;;;-0.45;100.00;100572.41;10425845;27;96586;-88
2023/12/09 05:10:40;;;;;;;35.17;13.20;;;1.70;99.90;;;-0.53;100.00;100558.97;10428495;27;98275;-88
2023/12/09 05:15:44;;;;;;;32.90;13.03;;;1.70;99.90;;;-0.44;100.00;100570.63;10498983;27;96597;-88
2023/12/09 05:20:47;;;;;;;31.70;11.57;;;1.70;99.90;;;-0.47;100.00;100570.84;10456625;27;96597;-88
2023/12/09 05:25:51;;;;;;;28.33;11.23;;;1.70;99.90;;;-0.44;100.00;100581.09;10440808;27;96851;-88
2023/12/09 05:30:56;;;;;;;26.13;11.63;;;1.70;99.90;;;-0.56;100.00;100562.59;10443072;27;98045;-87
2023/12/09 05:36:00;;;;;;;22.87;9.63;;;1.70;99.90;;;-0.49;100.00;100568.28;10458139;27;98067;-88
2023/12/09 05:41:05;;;;;;;28.10;11.43;;;1.70;99.90;;;-0.47;100.00;100574.28;10439759;27;96618;-88
2023/12/09 05:46:17;;;;;;;31.23;12.27;;;1.70;99.90;;;-0.44;100.00;100574.09;10446490;27;96664;-88
2023/12/09 05:51:21;;;;;;;24.93;10.10;;;1.70;99.90;;;-0.41;100.00;100573.94;10437249;27;96534;-88
2023/12/09 05:56:25;;;;;;;32.93;12.20;;;1.70;99.90;;;-0.43;100.00;100567.94;10435459;27;96692;-88
2023/12/09 06:01:28;;;;;;;31.13;11.77;;;1.80;99.90;;;-0.43;100.00;100570.53;10431144;27;97233;-88
2023/12/09 06:06:32;;;;;;;28.97;13.23;;;1.80;99.90;;;-0.39;100.00;100582.50;10406376;27;97974;-88
2023/12/09 06:11:36;;;;;;;34.87;13.83;;;1.80;99.90;;;-0.43;100.00;100581.00;10413663;28;96508;-88
2023/12/09 06:16:39;;;;;;;30.07;11.40;;;1.80;99.90;;;-0.39;100.00;100587.72;10440712;27;96528;-89
2023/12/09 06:21:42;;;;;;;32.07;13.17;;;1.80;99.90;;;-0.40;100.00;100587.81;10445616;27;96616;-89
2023/12/09 06:26:46;;;;;;;30.63;13.60;;;1.80;99.90;;;-0.44;100.00;100588.91;10453022;27;96814;-89
2023/12/09 06:31:49;;;;;;;30.70;11.97;;;1.70;99.90;;;-0.50;100.00;100579.66;10434180;27;96611;-89
2023/12/09 06:36:53;;;;;;;34.93;14.47;;;1.70;99.90;;;-0.45;100.00;100571.56;10451842;27;97967;-87
2023/12/09 06:41:56;;;;;;;31.23;12.57;;;1.70;99.90;;;-0.53;100.00;100569.41;10462115;27;96604;-88
2023/12/09 06:47:00;;;;;;;42.97;17.00;;;1.70;99.90;;;-0.50;100.00;100578.81;10452191;27;96947;-89
2023/12/09 06:52:04;;;;;;;69.13;24.67;;;1.60;99.90;;;-0.50;100.00;100582.28;10412623;27;96594;-88
2023/12/09 06:57:08;;;;;;;39.40;16.20;;;1.60;99.90;;;-0.45;100.00;100595.91;10435999;27;98438;-88
2023/12/09 07:02:11;;;;;;;57.87;23.30;;;1.70;99.90;;;-0.49;100.00;100580.50;10423141;27;96519;-87
2023/12/09 07:07:15;;;;;;;48.07;19.63;;;1.70;99.90;;;-0.43;100.00;100591.44;10431244;27;96854;-88
2023/12/09 07:12:25;;;;;;;37.43;17.43;;;1.80;99.90;;;-0.36;100.00;100599.75;10443716;27;96667;-88
2023/12/09 07:17:29;;;;;;;30.53;13.03;;;1.80;99.90;;;-0.47;100.00;100571.66;10466626;27;96657;-88
2023/12/09 07:22:33;;;;;;;35.20;14.60;;;1.80;99.90;;;-0.32;100.00;100602.09;10453554;27;96503;-88
2023/12/09 07:27:37;;;;;;;34.30;14.87;;;1.90;99.90;;;-0.27;100.00;100597.47;10449690;27;96704;-88
2023/12/09 07:32:40;;;;;;;34.03;15.10;;;1.90;99.90;;;-0.20;100.00;100587.50;10432680;27;98717;-88
2023/12/09 07:37:44;;;;;;;39.37;17.07;;;1.90;99.90;;;-0.16;100.00;100598.63;10450976;27;96652;-88
2023/12/09 07:42:50;;;;;;;38.33;15.83;;;2.00;99.90;;;-0.15;100.00;100601.13;10438172;27;97313;-88
2023/12/09 07:47:54;;;;;;;44.00;16.80;;;2.00;99.90;;;-0.20;100.00;100595.31;10441785;27;98933;-88
2023/12/09 07:52:59;;;;;;;42.83;18.90;;;2.10;99.90;;;-0.13;100.00;100601.03;10447407;27;97763;-88
2023/12/09 07:58:03;;;;;;;34.23;15.73;;;2.10;99.90;;;-0.11;100.00;100593.97;10438865;27;97894;-88
2023/12/09 08:03:07;;;;;;;37.53;15.13;;;2.10;99.90;;;-0.09;100.00;100592.94;10458600;27;96755;-88
2023/12/09 08:08:10;;;;;;;40.97;14.30;;;2.10;99.90;;;-0.05;100.00;100588.38;10483617;27;96556;-88
2023/12/09 08:13:14;;;;;;;41.57;14.80;;;2.20;99.90;;;0.05;100.00;100601.72;10491565;27;96938;-88
2023/12/09 08:18:18;;;;;;;34.27;12.83;;;2.30;99.90;;;0.05;100.00;100597.34;10459359;27;96709;-88
2023/12/09 08:23:21;;;;;;;35.57;13.97;;;2.30;99.90;;;0.11;100.00;100599.59;10466170;27;96708;-87
2023/12/09 08:28:27;;;;;;;38.73;14.73;;;2.30;99.90;;;0.18;100.00;100593.09;10469907;27;96482;-87
2023/12/09 08:33:31;;;;;;;40.50;17.63;;;2.40;99.90;;;0.27;100.00;100599.53;10442266;27;96697;-88
2023/12/09 08:38:35;;;;;;;35.07;13.83;;;2.50;99.90;;;0.33;100.00;100590.47;10456914;27;96507;-88
2023/12/09 08:43:38;;;;;;;33.73;14.27;;;2.60;99.90;;;0.37;100.00;100581.50;10469599;27;96527;-88
2023/12/09 08:48:42;;;;;;;40.83;18.07;;;2.60;99.90;;;0.47;100.00;100598.31;10465003;27;96611;-88
2023/12/09 08:53:46;;;;;;;34.63;15.90;;;2.70;99.90;;;0.52;100.00;100614.56;10482339;27;96583;-88
2023/12/09 08:58:49;;;;;;;40.67;17.33;;;2.70;99.90;;;0.54;100.00;100610.09;10415693;27;96565;-89
2023/12/09 09:03:53;;;;;;;38.67;16.63;;;2.70;99.90;;;0.54;100.00;100602.25;10423693;27;97969;-88
2023/12/09 09:08:56;;;;;;;31.87;14.30;;;2.70;99.90;;;0.60;100.00;100601.88;10459749;27;96551;-89
2023/12/09 09:14:00;;;;;;;34.37;15.63;;;2.70;99.90;;;0.62;100.00;100602.59;10454669;27;96829;-89
2023/12/09 09:19:05;;;;;;;31.33;15.30;;;2.80;99.90;;;0.64;100.00;100598.09;10425446;27;96614;-89
2023/12/09 09:24:09;;;;;;;38.57;17.83;;;2.80;99.90;;;0.71;100.00;100591.56;10456766;27;96622;-89
2023/12/09 09:29:12;;;;;;;30.30;13.67;;;2.90;99.90;;;0.69;100.00;100572.50;10445808;27;97685;-89
2023/12/09 09:34:16;;;;;;;44.70;19.40;;;2.90;99.90;;;0.77;100.00;100582.50;10482334;27;96535;-89
2023/12/09 09:39:20;;;;;;;37.27;15.67;;;2.90;99.90;;;0.76;100.00;100576.41;10455389;27;96504;-89
2023/12/09 09:44:32;;;;;;;29.17;13.07;;;3.00;99.90;;;0.82;100.00;100567.34;10462373;27;96453;-90
2023/12/09 09:49:38;;;;;;;28.70;12.57;;;3.00;99.90;;;0.88;100.00;100568.75;10470614;27;96845;-89
2023/12/09 09:54:44;;;;;;;28.60;12.43;;;3.00;99.90;;;0.91;100.00;100573.78;10446643;27;96933;-89
2023/12/09 09:59:47;;;;;;;28.80;13.30;;;3.00;99.90;;;0.89;100.00;100557.34;10425536;27;96671;-89
2023/12/09 10:04:51;;;;;;;31.47;13.40;;;3.00;99.90;;;0.90;100.00;100543.31;10424458;27;98806;-89
2023/12/09 10:09:55;;;;;;;31.43;13.33;;;3.10;99.90;;;0.91;100.00;100552.84;10440895;27;96468;-89
2023/12/09 10:15:01;;;;;;;26.53;12.70;;;3.10;99.90;;;0.94;100.00;100557.88;10438930;27;96658;-89
2023/12/09 10:20:06;;;;;;;28.67;12.53;;;3.10;99.90;;;0.92;100.00;100534.44;10442747;27;96996;-89
2023/12/09 10:25:19;;;;;;;30.23;13.70;;;3.10;99.90;;;0.95;100.00;100549.94;10422518;27;97000;-89
2023/12/09 10:30:23;;;;;;;28.53;13.30;;;3.10;99.90;;;0.94;100.00;100534.34;10450921;27;96956;-88
2023/12/09 10:35:27;;;;;;;27.87;12.93;;;3.10;99.90;;;0.89;100.00;100528.56;10478098;27;96669;-89
2023/12/09 10:40:32;;;;;;;23.43;11.60;;;3.10;99.90;;;0.90;100.00;100514.53;10427913;27;97917;-90
2023/12/09 10:45:36;;;;;;;24.63;11.10;;;3.10;99.90;;;0.90;100.00;100515.38;10413789;27;96602;-89
2023/12/09 10:50:39;;;;;;;26.40;11.30;;;3.10;99.90;;;0.86;100.00;100499.97;10438982;27;96711;-89
2023/12/09 10:55:43;;;;;;;29.53;13.67;;;3.10;99.90;;;0.92;100.00;100504.81;10438092;27;96447;-89
2023/12/09 11:00:48;;;;;;;36.20;14.50;;;3.10;99.90;;;0.94;100.00;100497.69;10459911;27;96657;-89
2023/12/09 11:05:55;;;;;;;33.33;15.83;;;3.20;99.90;;;1.04;100.00;100498.78;10462549;27;96828;-89
2023/12/09 11:11:03;;;;;;;31.13;13.43;;;3.20;99.90;;;1.05;100.00;100497.84;10446084;27;96473;-89
2023/12/09 11:16:19;;;;;;;26.47;11.87;;;3.20;99.90;;;1.06;100.00;100491.66;10439581;27;96817;-89
2023/12/09 11:21:26;;;;;;;32.17;14.00;;;3.20;99.90;;;1.02;100.00;100493.66;10473512;27;96501;-89
2023/12/09 11:26:35;;;;;;;29.87;13.90;;;3.20;99.90;;;0.98;100.00;100494.78;10470426;27;96439;-89
2023/12/09 11:31:40;;;;;;;29.00;12.73;;;3.10;99.90;;;0.94;100.00;100487.22;10452015;27;96694;-89
2023/12/09 11:36:46;;;;;;;35.33;16.27;;;3.10;99.90;;;0.93;100.00;100475.09;10444115;27;96444;-89
2023/12/09 11:41:50;;;;;;;31.07;15.00;;;3.00;99.90;;;0.97;100.00;100487.06;10444397;27;96525;-89
2023/12/09 11:46:55;;;;;;;29.77;13.77;;;3.10;99.90;;;0.94;100.00;100485.44;10452669;27;96643;-90
2023/12/09 11:51:59;;;;;;;29.80;13.47;;;3.10;99.90;;;0.94;100.00;100474.97;10417787;28;96817;-89
2023/12/09 11:57:03;;;;;;;30.97;13.17;;;3.10;99.90;;;1.03;100.00;100481.41;10454075;27;97884;-88
2023/12/09 12:02:07;;;;;;;37.40;15.10;;;3.10;99.90;;;1.03;100.00;100470.94;10460491;27;96443;-88
2023/12/09 12:07:11;;;;;;;29.30;13.77;;;3.10;99.90;;;1.05;100.00;100455.97;10441722;27;98002;-89
2023/12/09 12:12:14;;;;;;;26.10;12.77;;;3.10;99.90;;;1.07;100.00;100459.31;10442512;27;96474;-89
2023/12/09 12:17:18;;;;;;;33.70;14.43;;;3.10;99.90;;;1.03;100.00;100465.72;10441309;27;96625;-89
2023/12/09 12:22:21;;;;;;;29.57;13.17;;;3.10;99.90;;;1.01;100.00;100457.09;10442689;27;96473;-88
2023/12/09 12:27:25;;;;;;;32.70;13.67;;;3.10;99.90;;;1.03;100.00;100465.72;10458818;27;96588;-89
2023/12/09 12:32:37;;;;;;;31.83;13.07;;;3.10;99.90;;;0.99;100.00;100459.00;10441125;27;96569;-89
2023/12/09 12:37:41;;;;;;;36.03;15.87;;;3.10;99.90;;;0.96;100.00;100456.56;10459086;27;96844;-89
2023/12/09 12:42:45;;;;;;;30.20;13.30;;;3.10;99.90;;;0.86;100.00;100427.56;10458012;27;96554;-89
2023/12/09 12:47:49;;;;;;;43.63;16.50;;;3.10;99.90;;;0.88;100.00;100433.53;10446701;27;96808;-89
2023/12/09 12:52:54;;;;;;;33.77;15.87;;;3.10;99.90;;;0.97;100.00;100439.94;10483108;27;96483;-87
2023/12/09 12:57:58;;;;;;;33.97;13.33;;;3.10;99.90;;;0.91;100.00;100435.13;10481449;27;96498;-88
2023/12/09 13:03:05;;;;;;;37.70;16.67;;;3.10;99.90;;;0.85;100.00;100427.66;10441546;27;96498;-88
2023/12/09 13:08:08;;;;;;;30.47;13.27;;;3.00;99.90;;;0.82;100.00;100415.59;10457517;27;96549;-88
2023/12/09 13:13:14;;;;;;;39.27;17.13;;;3.00;99.90;;;0.88;100.00;100417.81;10418807;27;96614;-88
2023/12/09 13:18:19;;;;;;;34.57;16.00;;;3.00;99.90;;;0.88;100.00;100422.22;10440916;27;96587;-89
2023/12/09 13:23:25;;;;;;;36.87;14.70;;;3.00;99.90;;;0.85;100.00;100425.88;10441276;27;96456;-88
2023/12/09 13:28:31;;;;;;;33.13;14.23;;;3.00;99.90;;;0.80;100.00;100428.78;10457669;27;96549;-89
2023/12/09 13:33:35;;;;;;;32.23;15.03;;;3.00;99.90;;;0.78;100.00;100424.59;10457153;27;96500;-88
2023/12/09 13:38:39;;;;;;;28.97;13.23;;;3.00;99.90;;;0.74;100.00;100426.59;10445373;27;96528;-88
2023/12/09 13:43:43;;;;;;;33.43;14.57;;;2.90;99.90;;;0.73;100.00;100427.53;10491327;27;96758;-87
2023/12/09 13:48:46;;;;;;;37.83;16.93;;;2.90;99.90;;;0.65;100.00;100428.94;10481994;27;96652;-88
2023/12/09 13:53:50;;;;;;;30.27;13.60;;;2.80;99.90;;;0.64;100.00;100415.03;10458819;27;96704;-88
2023/12/09 13:58:54;;;;;;;34.27;14.77;;;2.80;99.90;;;0.68;100.00;100423.53;10421839;27;97844;-88
2023/12/09 14:03:57;;;;;;;39.40;15.93;;;2.80;99.90;;;0.64;100.00;100412.41;10439952;27;97092;-89
2023/12/09 14:09:02;;;;;;;38.57;16.60;;;2.80;99.90;;;0.65;100.00;100408.00;10420224;27;96693;-89
2023/12/09 14:14:06;;;;;;;43.00;18.03;;;2.80;99.90;;;0.56;100.00;100401.63;10400775;27;96525;-88
2023/12/09 14:19:10;;;;;;;55.20;21.50;;;2.80;99.90;;;0.58;100.00;100407.56;10439803;27;96487;-88
2023/12/09 14:24:15;;;;;;;40.47;17.97;;;2.70;99.90;;;0.46;100.00;100400.53;10447144;27;96429;-88
2023/12/09 14:29:19;;;;;;;46.30;18.37;;;2.70;99.90;;;0.44;100.00;100397.19;10424394;27;96578;-89
2023/12/09 14:34:25;;;;;;;55.67;20.10;;;2.70;99.90;;;0.41;100.00;100397.34;10458268;27;96476;-88
2023/12/09 14:39:29;;;;;;;52.87;21.87;;;2.60;99.90;;;0.41;100.00;100392.13;10486426;27;96546;-89
2023/12/09 14:44:33;;;;;;;45.53;17.00;;;2.60;99.90;;;0.32;100.00;100379.66;10486793;27;96900;-89
2023/12/09 14:49:37;;;;;;;42.97;18.00;;;2.60;99.90;;;0.20;100.00;100366.44;10435004;27;96529;-88
2023/12/09 14:54:41;;;;;;;43.13;17.53;;;2.50;99.90;;;0.24;100.00;100373.16;10443270;27;96654;-88
2023/12/09 14:59:45;;;;;;;56.17;19.67;;;2.50;99.90;;;0.20;100.00;100369.06;10455215;27;96963;-88
2023/12/09 15:04:49;;;;;;;50.17;19.30;;;2.40;99.90;;;0.13;100.00;100359.94;10430983;27;96825;-88
2023/12/09 15:09:52;;;;;;;42.17;15.47;;;2.40;99.90;;;0.11;100.00;100371.41;10435827;27;97718;-87
2023/12/09 15:14:56;;;;;;;40.33;14.73;;;2.30;99.90;;;-0.03;100.00;100364.44;10450142;27;96529;-87
2023/12/09 15:20:00;;;;;;;41.00;16.23;;;2.20;99.90;;;0.00;100.00;100364.25;10471019;27;96613;-89
2023/12/09 15:25:05;;;;;;;47.43;16.47;;;2.20;99.90;;;-0.06;100.00;100351.56;10427165;27;96809;-89
2023/12/09 15:30:10;;;;;;;46.23;18.23;;;2.10;99.90;;;-0.10;100.00;100342.25;10439566;27;96700;-89
2023/12/09 15:35:15;;;;;;;41.67;16.30;;;2.10;99.90;;;-0.14;100.00;100345.97;10418636;27;98027;-87
2023/12/09 15:40:19;;;;;;;40.13;15.87;;;2.00;99.90;;;-0.19;100.00;100342.81;10432757;27;96905;-88
2023/12/09 15:45:22;;;;;;;37.27;16.00;;;2.00;99.90;;;-0.22;100.00;100343.84;10430220;27;97625;-88
2023/12/09 15:50:26;;;;;;;39.00;17.40;;;1.90;99.90;;;-0.25;100.00;100344.03;10377650;27;96565;-88
2023/12/09 15:55:31;;;;;;;37.87;16.10;;;1.90;99.90;;;-0.30;100.00;100326.06;10398791;27;96761;-88
2023/12/09 16:00:35;;;;;;;46.73;18.13;;;1.80;99.90;;;-0.32;100.00;100333.13;10380829;27;96567;-88
2023/12/09 16:05:39;;;;;;;39.97;16.60;;;1.80;99.90;;;-0.31;100.00;100344.41;10400498;28;96566;-88
2023/12/09 16:10:43;;;;;;;44.50;16.90;;;1.80;99.90;;;-0.31;100.00;100355.69;10379595;28;97165;-88
2023/12/09 16:15:47;;;;;;;49.40;20.50;;;1.80;99.90;;;-0.31;100.00;100340.03;10376361;27;96678;-88
2023/12/09 16:20:50;;;;;;;52.73;19.23;;;1.90;99.90;;;-0.29;100.00;100337.34;10417563;27;96599;-88
2023/12/09 16:25:54;;;;;;;55.93;20.47;;;1.80;99.90;;;-0.31;100.00;100328.75;10388638;28;96503;-88
2023/12/09 16:30:58;;;;;;;48.43;19.10;;;1.80;99.90;;;-0.30;100.00;100328.66;10388863;27;96699;-88
2023/12/09 16:36:01;;;;;;;38.50;15.93;;;1.80;99.90;;;-0.30;100.00;100328.66;10392565;28;96589;-88
2023/12/09 16:41:05;;;;;;;44.00;16.73;;;1.90;99.90;;;-0.30;100.00;100313.00;10400524;27;96526;-88
2023/12/09 16:46:09;;;;;;;38.97;16.60;;;1.90;99.90;;;-0.31;100.00;100313.06;10407382;27;96588;-88
2023/12/09 16:51:13;;;;;;;44.23;16.20;;;1.90;99.90;;;-0.31;100.00;100318.28;10424674;27;96815;-87
2023/12/09 16:56:18;;;;;;;46.00;16.10;;;1.90;99.90;;;-0.34;100.00;100303.69;10409848;27;96728;-87
2023/12/09 17:01:22;;;;;;;53.10;19.00;;;1.90;99.90;;;-0.32;100.00;100295.75;10445000;27;97863;-86
2023/12/09 17:06:26;;;;;;;63.97;22.57;;;1.90;99.90;;;-0.33;100.00;100310.56;10478457;27;96599;-86
2023/12/09 17:11:29;;;;;;;58.27;21.03;;;1.80;99.90;;;-0.43;100.00;100303.41;10454063;27;96449;-86
2023/12/09 17:16:33;;;;;;;60.90;20.53;;;1.80;99.90;;;-0.42;100.00;100298.09;10458976;27;96529;-86
2023/12/09 17:21:36;;;;;;;62.57;22.30;;;1.80;99.90;;;-0.45;100.00;100280.00;10449072;27;96731;-85
2023/12/09 17:26:40;;;;;;;53.27;21.47;;;1.70;99.90;;;-0.50;100.00;100294.28;10484310;27;96553;-85
2023/12/09 17:31:43;;;;;;;89.17;26.23;;;1.70;99.90;;;-0.50;100.00;100297.72;10454343;27;96605;-86
2023/12/09 17:36:50;;;;;;;55.43;19.70;;;1.60;99.90;;;-0.55;100.00;100286.72;10461730;27;96501;-86
2023/12/09 17:41:57;;;;;;;46.53;16.80;;;1.60;99.90;;;-0.52;100.00;100291.75;10456461;27;96532;-86
2023/12/09 17:47:01;;;;;;;39.30;14.90;;;1.70;99.90;;;-0.51;100.00;100280.38;10496827;27;96681;-86
2023/12/09 17:52:05;;;;;;;75.17;27.37;;;1.70;99.90;;;-0.53;100.00;100277.03;10471054;27;96585;-86
2023/12/09 17:57:09;;;;;;;59.47;22.83;;;1.70;99.90;;;-0.50;100.00;100266.41;10445031;27;98435;-86
2023/12/09 18:02:13;;;;;;;52.97;21.37;;;1.70;99.90;;;-0.50;100.00;100258.56;10443341;27;96629;-87
2023/12/09 18:07:17;;;;;;;56.43;21.63;;;1.70;99.90;;;-0.47;100.00;100260.16;10444033;27;96524;-86
2023/12/09 18:12:20;;;;;;;62.37;23.10;;;1.70;99.90;;;-0.44;100.00;100236.47;10463571;27;96973;-86
2023/12/09 18:17:24;;;;;;;46.33;17.47;;;1.70;99.90;;;-0.44;100.00;100237.28;10479754;27;96751;-86
2023/12/09 18:22:28;;;;;;;36.83;17.00;;;1.70;99.90;;;-0.45;100.00;100238.22;10455815;27;96540;-87
2023/12/09 18:27:32;;;;;;;52.10;19.70;;;1.80;99.90;;;-0.44;100.00;100258.19;10475031;27;96652;-87
2023/12/09 18:32:38;;;;;;;48.60;16.80;;;1.80;99.90;;;-0.45;100.00;100251.28;10459838;27;96535;-86
2023/12/09 18:37:44;;;;;;;46.30;18.60;;;1.80;99.90;;;-0.49;100.00;100226.28;10428697;27;96572;-86
2023/12/09 18:42:48;;;;;;;45.10;18.90;;;1.80;99.90;;;-0.42;100.00;100238.06;10455189;27;96389;-86
2023/12/09 18:47:54;;;;;;;45.30;16.63;;;1.80;99.90;;;-0.46;100.00;100233.94;10455467;27;96560;-87
2023/12/09 18:52:58;;;;;;;36.47;14.43;;;1.70;99.90;;;-0.42;100.00;100226.75;10438940;27;96609;-87
2023/12/09 18:58:02;;;;;;;44.63;16.43;;;1.70;99.90;;;-0.44;100.00;100231.25;10405010;27;96761;-86
2023/12/09 19:03:06;;;;;;;40.47;14.23;;;1.70;99.90;;;-0.47;100.00;100205.34;10461072;27;96598;-87
2023/12/09 19:08:10;;;;;;;34.73;13.63;;;1.70;99.90;;;-0.48;100.00;100186.22;10477306;27;96510;-86
2023/12/09 19:13:13;;;;;;;33.33;13.27;;;1.70;99.90;;;-0.48;100.00;100177.53;10475733;27;96669;-87
2023/12/09 19:18:17;;;;;;;42.13;14.10;;;1.70;99.90;;;-0.50;100.00;100166.38;10446573;27;97988;-86
2023/12/09 19:23:21;;;;;;;41.03;14.37;;;1.60;99.90;;;-0.57;100.00;100168.53;10456317;27;96586;-87
2023/12/09 19:28:25;;;;;;;38.33;13.93;;;1.60;99.90;;;-0.68;100.00;100157.94;10472877;27;97126;-87
2023/12/09 19:33:29;;;;;;;31.63;12.63;;;1.60;99.90;;;-0.52;100.00;100156.03;10469558;27;96714;-88
2023/12/09 19:38:32;;;;;;;40.43;13.13;;;1.60;99.90;;;-0.56;100.00;100147.53;10438993;27;97421;-87
2023/12/09 19:43:36;;;;;;;32.07;11.83;;;1.60;99.90;;;-0.58;100.00;100153.81;10475885;27;96564;-87
2023/12/09 19:48:40;;;;;;;35.67;13.47;;;1.60;99.90;;;-0.64;100.00;100138.53;10481482;27;96835;-87
2023/12/09 19:53:47;;;;;;;36.23;13.27;;;1.50;99.90;;;-0.69;100.00;100125.78;10470581;27;96637;-87
2023/12/09 19:58:51;;;;;;;34.63;14.10;;;1.50;99.90;;;-0.72;100.00;100119.91;10452146;27;96472;-87
2023/12/09 20:03:55;;;;;;;34.90;13.33;;;1.40;99.90;;;-0.79;100.00;100111.63;10455104;27;96652;-87
2023/12/09 20:08:58;;;;;;;41.70;15.87;;;1.40;99.90;;;-0.78;100.00;100107.25;10486187;27;96529;-87
2023/12/09 20:14:02;;;;;;;38.13;12.40;;;1.30;99.90;;;-0.78;100.00;100109.84;10459624;27;97060;-87
2023/12/09 20:19:05;;;;;;;35.63;13.90;;;1.30;99.90;;;-0.83;100.00;100097.97;10482537;27;97850;-88
2023/12/09 20:24:11;;;;;;;31.80;11.93;;;1.30;99.90;;;-0.78;100.00;100100.28;10469991;27;96716;-87
2023/12/09 20:29:15;;;;;;;36.60;14.70;;;1.40;99.90;;;-0.83;100.00;100079.69;10454342;27;96506;-87